Time;durP1;ratioP1;P1;durP2;ratioP2;P2;SDS_P1;SDS_P2;PMS_P1;PMS_P2;Temp;Humidity;BMP_temperature;BMP_pressure;BME280_temperature;BME280_humidity;BME280_pressure;Samples;Min_cycle;Max_cycle;Signal;HPM_P1;HPM_P2
2022/11/08 00:03:54;;;;;;;0.00;0.00;;;;;;;12.14;92.35;100063.59;5033591;28;20175;-79
2022/11/08 00:14:31;;;;;;;2.43;1.60;;;;;;;12.06;93.03;100069.94;5032998;28;20187;-79
2022/11/08 00:16:56;;;;;;;2.10;0.70;;;;;;;12.04;92.78;100077.66;5033345;28;20401;-80
2022/11/08 00:19:21;;;;;;;0.10;0.10;;;;;;;11.99;93.17;100069.63;5033037;28;20172;-77
2022/11/08 00:21:47;;;;;;;0.67;0.30;;;;;;;12.00;93.14;100073.16;5033405;28;20179;-80
2022/11/08 00:24:12;;;;;;;0.00;0.00;;;;;;;11.97;92.89;100071.91;5032942;28;20215;-80
2022/11/08 00:26:37;;;;;;;0.90;0.90;;;;;;;12.04;93.47;100074.13;5032967;28;20196;-80
2022/11/08 00:29:02;;;;;;;1.17;0.40;;;;;;;12.09;93.25;100079.41;5032916;28;20203;-78
2022/11/08 00:31:28;;;;;;;0.27;0.27;;;;;;;12.13;92.87;100085.81;5032907;28;20179;-79
2022/11/08 00:33:54;;;;;;;0.20;0.20;;;;;;;12.16;92.26;100077.78;5015134;28;20505;-81
2022/11/08 00:36:19;;;;;;;5.23;0.67;;;;;;;12.17;92.66;100076.63;5032796;28;20176;-80
2022/11/08 00:38:45;;;;;;;4.87;1.63;;;;;;;12.20;91.96;100086.13;5032563;28;20191;-78
2022/11/08 00:41:11;;;;;;;3.13;0.73;;;;;;;12.23;92.01;100081.91;5032799;28;20278;-78
2022/11/08 00:43:36;;;;;;;0.30;0.30;;;;;;;12.24;91.62;100078.84;5032571;28;20298;-80
2022/11/08 00:46:01;;;;;;;0.23;0.10;;;;;;;12.25;91.25;100077.69;5032401;28;20630;-80
2022/11/08 00:48:26;;;;;;;0.33;0.33;;;;;;;12.25;91.96;100076.91;5032480;28;20201;-77
2022/11/08 00:50:52;;;;;;;0.20;0.20;;;;;;;12.21;91.44;100074.03;5032553;28;20181;-78
2022/11/08 00:53:17;;;;;;;0.00;0.00;;;;;;;12.22;91.93;100075.63;5031479;28;20640;-80
2022/11/08 00:55:42;;;;;;;0.00;0.00;;;;;;;12.17;91.98;100071.16;5032412;28;20686;-80
2022/11/08 00:58:08;;;;;;;0.00;0.00;;;;;;;12.14;92.24;100071.00;5032529;28;20187;-82
2022/11/08 01:00:33;;;;;;;0.93;0.93;;;;;;;12.05;92.68;100070.25;5032295;28;20190;-79
2022/11/08 01:05:42;;;;;;;0.00;0.00;;;;;;;11.95;92.72;100078.84;5032262;28;20191;-79
2022/11/08 01:08:08;;;;;;;0.00;0.00;;;;;;;11.94;92.68;100071.75;5032281;28;20211;-79
2022/11/08 01:10:34;;;;;;;0.00;0.00;;;;;;;11.83;93.71;100074.84;5032183;28;20545;-80
2022/11/08 01:12:59;;;;;;;0.00;0.00;;;;;;;11.86;93.72;100073.38;5031970;28;20631;-81
2022/11/08 01:15:24;;;;;;;0.00;0.00;;;;;;;11.71;93.91;100074.72;5032063;28;20618;-80
2022/11/08 01:17:49;;;;;;;0.10;0.10;;;;;;;11.76;93.54;100074.53;5032311;28;20234;-80
2022/11/08 01:20:15;;;;;;;0.00;0.00;;;;;;;11.72;94.12;100073.59;5031873;28;20539;-79
2022/11/08 01:22:40;;;;;;;0.23;0.23;;;;;;;11.68;94.65;100067.16;5014213;28;20183;-73
2022/11/08 01:25:06;;;;;;;0.40;0.40;;;;;;;11.68;95.22;100069.91;5033604;28;20168;-73
2022/11/08 01:27:31;;;;;;;0.00;0.00;;;;;;;11.64;94.90;100074.44;5035097;28;20191;-73
2022/11/08 01:29:57;;;;;;;0.10;0.10;;;;;;;11.58;95.39;100070.28;5033143;28;20612;-73
2022/11/08 01:32:23;;;;;;;0.10;0.00;;;;;;;11.55;95.46;100066.22;5031922;28;20199;-74
2022/11/08 01:34:48;;;;;;;0.00;0.00;;;;;;;11.52;96.07;100069.63;5031832;28;20647;-74
2022/11/08 01:37:14;;;;;;;0.30;0.30;;;;;;;11.47;96.24;100060.81;5031719;28;20661;-73
2022/11/08 01:39:39;;;;;;;0.00;0.00;;;;;;;11.42;96.57;100063.69;5031687;28;20172;-73
2022/11/08 01:42:04;;;;;;;0.00;0.00;;;;;;;11.36;96.79;100065.81;5031673;28;20188;-74
2022/11/08 01:44:30;;;;;;;0.10;0.10;;;;;;;11.38;97.03;100060.03;5031220;28;20536;-73
2022/11/08 01:46:55;;;;;;;0.20;0.20;;;;;;;11.35;97.30;100063.41;5031412;28;20594;-73
2022/11/08 01:49:38;;;;;;;1.17;0.17;;;;;;;11.29;97.90;100052.66;5031556;28;20611;-76
2022/11/08 01:52:18;;;;;;;5.20;1.40;;;;;;;11.22;98.17;100057.81;5031295;28;20180;-73
2022/11/08 01:54:46;;;;;;;0.00;0.00;;;;;;;11.23;97.99;100053.13;5031216;28;20190;-73
2022/11/08 01:57:15;;;;;;;0.30;0.30;;;;;;;11.18;98.59;100059.59;5031279;28;20171;-73
2022/11/08 01:59:43;;;;;;;0.00;0.00;;;;;;;11.17;99.09;100047.06;5031392;28;20176;-73
2022/11/08 02:02:10;;;;;;;0.00;0.00;;;;;;;11.15;98.98;100060.25;5031282;28;20245;-73
2022/11/08 02:04:37;;;;;;;0.00;0.00;;;;;;;11.11;99.27;100051.06;5046392;28;20655;-75
2022/11/08 02:07:05;;;;;;;0.00;0.00;;;;;;;11.12;99.56;100052.66;5031064;28;20180;-74
2022/11/08 02:09:31;;;;;;;0.10;0.10;;;;;;;11.11;99.17;100050.25;5030869;28;20654;-74
2022/11/08 02:11:57;;;;;;;0.00;0.00;;;;;;;11.04;99.96;100042.56;5031278;28;20210;-73
2022/11/08 02:14:22;;;;;;;0.00;0.00;;;;;;;11.00;99.90;100033.41;5031058;28;20263;-72
2022/11/08 02:16:48;;;;;;;0.20;0.20;;;;;;;10.94;100.00;100035.50;5031083;28;20182;-73
2022/11/08 02:19:24;;;;;;;0.73;0.73;;;;;;;10.97;100.00;100025.84;5031376;28;20180;-74
2022/11/08 02:21:57;;;;;;;0.00;0.00;;;;;;;10.86;100.00;100027.31;5031267;28;20226;-72
2022/11/08 02:24:22;;;;;;;0.50;0.50;;;;;;;10.81;100.00;100024.75;5030855;28;20254;-73
2022/11/08 02:26:50;;;;;;;0.27;0.27;;;;;;;10.83;100.00;100028.75;5030846;28;20310;-73
2022/11/08 02:29:33;;;;;;;2.43;1.17;;;;;;;10.86;100.00;100028.13;5030824;28;20183;-73
2022/11/08 02:32:00;;;;;;;0.00;0.00;;;;;;;10.84;100.00;100029.56;5030936;28;20183;-73
2022/11/08 02:34:30;;;;;;;0.40;0.40;;;;;;;10.80;100.00;100020.41;5030409;28;20322;-73
2022/11/08 02:36:56;;;;;;;1.93;0.40;;;;;;;10.84;100.00;100019.44;5031069;28;20172;-73
2022/11/08 02:39:22;;;;;;;0.83;0.60;;;;;;;10.86;100.00;100011.72;5030678;28;20673;-73
2022/11/08 02:41:47;;;;;;;0.00;0.00;;;;;;;10.86;100.00;100010.94;5030636;28;20686;-72
2022/11/08 02:44:12;;;;;;;0.93;0.93;;;;;;;10.89;100.00;100016.53;5030553;28;20182;-73
2022/11/08 02:46:37;;;;;;;0.00;0.00;;;;;;;10.92;100.00;100012.34;5030899;28;20532;-72
2022/11/08 02:49:03;;;;;;;0.00;0.00;;;;;;;10.90;100.00;100012.69;5030542;28;20294;-73
2022/11/08 02:51:28;;;;;;;0.00;0.00;;;;;;;10.88;100.00;100014.13;5030536;28;20176;-72
2022/11/08 02:53:53;;;;;;;0.77;0.77;;;;;;;10.92;100.00;100015.09;5030422;28;20258;-73
2022/11/08 02:56:19;;;;;;;0.20;0.20;;;;;;;10.91;100.00;100002.56;5030649;28;20238;-73
2022/11/08 02:58:44;;;;;;;1.03;0.77;;;;;;;10.97;100.00;100012.19;5030541;28;20186;-72
2022/11/08 03:01:10;;;;;;;3.03;0.73;;;;;;;10.95;100.00;100020.69;5030250;28;20208;-73
2022/11/08 03:03:35;;;;;;;10.43;0.73;;;;;;;10.95;100.00;100019.91;5030378;28;20262;-72
2022/11/08 03:06:01;;;;;;;0.10;0.10;;;;;;;10.92;100.00;100012.34;5030533;28;20635;-73
2022/11/08 03:08:26;;;;;;;0.00;0.00;;;;;;;10.93;100.00;100016.69;5030316;28;20218;-73
2022/11/08 03:10:51;;;;;;;0.97;0.97;;;;;;;10.92;100.00;100023.28;5030289;28;20199;-73
2022/11/08 03:13:17;;;;;;;5.40;0.77;;;;;;;10.93;100.00;100019.44;5030310;28;20172;-73
2022/11/08 03:15:42;;;;;;;0.00;0.00;;;;;;;10.92;100.00;100009.63;5030237;28;20190;-72
2022/11/08 03:18:07;;;;;;;0.10;0.10;;;;;;;10.94;100.00;100018.28;5034583;28;20183;-73
2022/11/08 03:20:32;;;;;;;0.23;0.17;;;;;;;10.99;99.61;100018.13;5034293;28;20687;-73
2022/11/08 03:23:03;;;;;;;6.50;0.33;;;;;;;11.00;99.38;100017.81;5034105;28;20183;-73
2022/11/08 03:25:29;;;;;;;1.23;0.67;;;;;;;11.01;99.24;100011.22;5034126;28;20167;-72
2022/11/08 03:27:54;;;;;;;8.90;0.77;;;;;;;11.00;99.40;100014.28;5034048;28;20294;-73
2022/11/08 03:30:20;;;;;;;0.00;0.00;;;;;;;10.93;99.49;100024.91;5033776;28;20242;-73
2022/11/08 03:32:46;;;;;;;0.50;0.30;;;;;;;10.91;99.59;100013.47;5033967;28;20211;-72
2022/11/08 03:35:13;;;;;;;0.00;0.00;;;;;;;10.93;99.50;100013.97;5034189;28;20638;-73
2022/11/08 03:37:38;;;;;;;1.10;1.10;;;;;;;10.92;99.50;100012.34;5033999;28;20183;-73
2022/11/08 03:40:04;;;;;;;0.57;0.40;;;;;;;10.88;99.53;100014.13;5033813;28;20194;-73
2022/11/08 03:42:29;;;;;;;1.27;0.70;;;;;;;10.94;99.51;100010.09;5033754;28;20250;-72
2022/11/08 03:44:55;;;;;;;0.00;0.00;;;;;;;10.91;99.20;100010.75;5016044;28;20208;-73
2022/11/08 03:47:20;;;;;;;0.73;0.43;;;;;;;10.87;99.41;100012.53;5033646;28;20282;-73
2022/11/08 03:49:45;;;;;;;0.10;0.10;;;;;;;10.86;99.42;100008.19;5033606;28;20184;-72
2022/11/08 03:52:11;;;;;;;0.53;0.40;;;;;;;10.91;99.22;100016.22;5033719;28;20230;-72
2022/11/08 03:54:36;;;;;;;0.10;0.10;;;;;;;10.93;98.85;100013.97;5033484;28;20230;-76
2022/11/08 03:57:02;;;;;;;0.00;0.00;;;;;;;10.91;98.45;100017.03;5033383;28;20596;-73
2022/11/08 03:59:27;;;;;;;0.00;0.00;;;;;;;10.87;98.72;100021.53;5033695;28;20176;-74
2022/11/08 04:01:52;;;;;;;0.17;0.17;;;;;;;10.86;98.58;100013.66;5033511;28;20245;-74
2022/11/08 04:04:18;;;;;;;0.20;0.20;;;;;;;10.87;99.17;100015.25;5033303;28;20187;-73
2022/11/08 04:06:43;;;;;;;0.80;0.80;;;;;;;10.87;99.11;100005.13;5033168;28;20172;-73
2022/11/08 04:09:08;;;;;;;0.00;0.00;;;;;;;10.84;99.54;100007.69;5033215;28;20212;-73
2022/11/08 04:17:01;;;;;;;0.00;0.00;;;;;;;10.58;99.68;100000.34;5033541;28;20248;-73
2022/11/08 04:22:11;;;;;;;0.00;0.00;;;;;;;10.54;100.00;99996.63;5033448;28;20183;-73
2022/11/08 04:24:36;;;;;;;0.00;0.00;;;;;;;10.39;100.00;99994.38;5033070;28;20539;-74
2022/11/08 04:27:02;;;;;;;0.00;0.00;;;;;;;10.41;100.00;99989.41;5032525;28;20251;-75
2022/11/08 04:29:28;;;;;;;0.83;0.83;;;;;;;10.37;100.00;99993.91;5032198;28;20259;-76
2022/11/08 04:31:53;;;;;;;0.00;0.00;;;;;;;10.31;100.00;99990.53;5032809;28;20233;-75
2022/11/08 04:34:19;;;;;;;0.00;0.00;;;;;;;10.34;100.00;99978.16;5032579;28;20180;-73
2022/11/08 04:36:44;;;;;;;0.33;0.33;;;;;;;10.40;100.00;99982.34;5032834;28;20183;-74
2022/11/08 04:39:09;;;;;;;0.00;0.00;;;;;;;10.40;100.00;99990.53;5032958;28;20596;-73
2022/11/08 04:41:35;;;;;;;0.20;0.20;;;;;;;10.33;100.00;99985.56;5032704;28;20786;-75
2022/11/08 04:44:01;;;;;;;0.00;0.00;;;;;;;10.37;100.00;99981.06;5032523;28;20192;-74
2022/11/08 04:46:28;;;;;;;0.00;0.00;;;;;;;10.35;100.00;99971.59;5032285;28;20195;-73
2022/11/08 04:48:55;;;;;;;0.00;0.00;;;;;;;10.38;100.00;99973.66;5032533;28;20329;-75
2022/11/08 04:51:26;;;;;;;0.50;0.50;;;;;;;10.46;100.00;99981.06;5032346;28;20187;-73
2022/11/08 04:53:53;;;;;;;1.13;0.53;;;;;;;10.40;100.00;99971.41;5032310;28;20189;-73
2022/11/08 04:56:20;;;;;;;0.00;0.00;;;;;;;10.49;100.00;99974.94;5032483;28;20176;-75
2022/11/08 04:58:53;;;;;;;0.57;0.47;;;;;;;10.54;100.00;99980.25;5032367;28;20172;-74
2022/11/08 05:01:25;;;;;;;0.00;0.00;;;;;;;10.55;100.00;99978.31;5029047;28;20168;-73
2022/11/08 05:03:51;;;;;;;0.30;0.30;;;;;;;10.47;100.00;99968.22;5032209;28;20486;-73
2022/11/08 05:06:22;;;;;;;0.03;0.03;;;;;;;10.36;100.00;99971.25;5032322;28;20232;-73
2022/11/08 05:08:48;;;;;;;0.00;0.00;;;;;;;10.43;100.00;99970.78;5032177;28;20238;-73
2022/11/08 05:11:20;;;;;;;0.00;0.00;;;;;;;10.51;100.00;99978.16;5032108;28;20233;-74
2022/11/08 05:13:46;;;;;;;0.00;0.00;;;;;;;10.53;100.00;99973.16;5031824;28;20745;-72
2022/11/08 05:16:17;;;;;;;1.53;0.60;;;;;;;10.52;100.00;99984.44;5032076;28;20556;-73
2022/11/08 05:18:43;;;;;;;0.47;0.47;;;;;;;10.54;100.00;99969.31;5032048;28;20349;-74
2022/11/08 05:23:55;;;;;;;0.47;0.47;;;;;;;10.55;100.00;99973.66;5031997;28;20183;-76
2022/11/08 05:26:20;;;;;;;0.00;0.00;;;;;;;10.55;100.00;99973.66;5031900;28;20176;-73
2022/11/08 05:28:46;;;;;;;0.00;0.00;;;;;;;10.50;100.00;99971.09;5031920;28;20242;-73
2022/11/08 05:31:11;;;;;;;0.23;0.23;;;;;;;10.54;100.00;99974.78;5031683;28;20259;-75
2022/11/08 05:33:37;;;;;;;0.10;0.10;;;;;;;10.56;100.00;99969.00;5031581;28;20211;-73
2022/11/08 05:36:05;;;;;;;0.10;0.10;;;;;;;10.46;100.00;99961.94;5031748;28;20199;-75
2022/11/08 05:38:30;;;;;;;2.00;1.90;;;;;;;10.47;100.00;99965.47;5031500;28;20176;-81
2022/11/08 05:41:17;;;;;;;0.67;0.63;;;;;;;10.37;100.00;99963.88;5031311;28;20230;-83
2022/11/08 05:43:45;;;;;;;0.07;0.07;;;;;;;10.34;100.00;99950.88;5032124;28;20217;-83
2022/11/08 05:46:11;;;;;;;0.20;0.20;;;;;;;10.33;100.00;99954.72;5033028;28;20668;-82
2022/11/08 05:48:36;;;;;;;0.17;0.17;;;;;;;10.30;100.00;99952.63;5031337;28;20203;-82
2022/11/08 05:51:02;;;;;;;0.40;0.40;;;;;;;10.29;100.00;99954.56;5031415;28;20689;-81
2022/11/08 05:53:28;;;;;;;0.27;0.23;;;;;;;10.27;100.00;99956.81;5031416;28;20167;-81
2022/11/08 05:55:58;;;;;;;7.27;0.80;;;;;;;10.23;100.00;99944.09;5031679;28;20597;-81
2022/11/08 05:58:23;;;;;;;0.00;0.00;;;;;;;10.18;100.00;99942.31;5031435;28;20254;-82
2022/11/08 06:00:49;;;;;;;0.80;0.80;;;;;;;10.16;100.00;99941.84;5031668;28;20255;-81
2022/11/08 06:03:14;;;;;;;0.30;0.30;;;;;;;10.11;100.00;99948.25;5031041;28;20536;-81
2022/11/08 06:05:39;;;;;;;0.60;0.60;;;;;;;10.11;100.00;99952.91;5031439;28;20168;-82
2022/11/08 06:08:05;;;;;;;0.00;0.00;;;;;;;10.09;100.00;99952.41;5031063;28;20199;-81
2022/11/08 06:10:30;;;;;;;0.60;0.60;;;;;;;10.04;100.00;99950.66;5031114;28;20490;-81
2022/11/08 06:13:02;;;;;;;5.00;0.50;;;;;;;10.05;100.00;99949.53;5031153;28;20267;-81
2022/11/08 06:15:27;;;;;;;0.43;0.43;;;;;;;10.02;100.00;99939.28;5030980;28;20176;-82
2022/11/08 06:17:52;;;;;;;10.10;1.07;;;;;;;9.95;100.00;99954.50;5030934;28;20171;-83
2022/11/08 06:20:17;;;;;;;0.23;0.23;;;;;;;9.93;100.00;99951.28;5031349;28;20170;-80
2022/11/08 06:22:43;;;;;;;0.53;0.53;;;;;;;9.98;100.00;99945.66;5030762;28;20611;-82
2022/11/08 06:25:09;;;;;;;0.90;0.90;;;;;;;9.97;100.00;99955.78;5031037;28;20213;-82
2022/11/08 06:27:35;;;;;;;0.20;0.20;;;;;;;10.02;100.00;99952.91;5030786;28;20457;-81
2022/11/08 06:30:00;;;;;;;0.27;0.27;;;;;;;10.03;100.00;99951.78;5030899;28;20211;-83
2022/11/08 06:32:26;;;;;;;7.43;0.83;;;;;;;10.04;100.00;99956.13;5030777;28;20534;-82
2022/11/08 06:34:51;;;;;;;0.80;0.80;;;;;;;10.06;100.00;99950.34;5030865;28;20263;-81
2022/11/08 06:37:16;;;;;;;0.47;0.47;;;;;;;10.07;100.00;99949.22;5030816;28;20175;-83
2022/11/08 06:39:42;;;;;;;0.10;0.10;;;;;;;10.07;100.00;99949.22;5030691;28;20200;-78
2022/11/08 06:42:08;;;;;;;0.03;0.03;;;;;;;10.07;100.00;99939.09;5031085;28;20176;-83
2022/11/08 06:44:34;;;;;;;0.57;0.57;;;;;;;10.05;100.00;99944.06;5030250;28;20195;-83
2022/11/08 06:46:59;;;;;;;0.87;0.80;;;;;;;10.05;100.00;99938.63;5030726;28;20183;-82
2022/11/08 06:49:25;;;;;;;0.07;0.07;;;;;;;9.97;100.00;99942.13;5030494;28;20667;-82
2022/11/08 06:51:51;;;;;;;0.53;0.53;;;;;;;10.02;100.00;99944.72;5032638;28;20172;-83
2022/11/08 06:54:17;;;;;;;3.87;1.77;;;;;;;10.07;100.00;99941.81;5034918;28;20184;-81
2022/11/08 06:56:42;;;;;;;0.50;0.50;;;;;;;10.10;100.00;99949.38;5034806;28;20176;-82
2022/11/08 06:59:08;;;;;;;0.30;0.30;;;;;;;10.10;100.00;99943.91;5034562;28;20178;-83
2022/11/08 07:01:35;;;;;;;0.17;0.17;;;;;;;10.20;100.00;99940.06;5034569;28;20176;-79
2022/11/08 07:04:01;;;;;;;0.00;0.00;;;;;;;10.23;100.00;99947.66;5034515;28;20681;-80
2022/11/08 07:06:26;;;;;;;0.33;0.23;;;;;;;10.27;100.00;99934.16;5034567;28;20188;-81
2022/11/08 07:08:51;;;;;;;0.50;0.10;;;;;;;10.28;100.00;99930.31;5034383;28;20300;-84
2022/11/08 07:11:16;;;;;;;0.00;0.00;;;;;;;10.35;100.00;99931.41;5034284;28;20180;-84
2022/11/08 07:13:42;;;;;;;2.93;0.93;;;;;;;10.44;100.00;99936.88;5034287;28;20202;-83
2022/11/08 07:16:08;;;;;;;0.30;0.30;;;;;;;10.50;100.00;99932.84;5034516;28;20191;-83
2022/11/08 07:18:33;;;;;;;16.03;0.50;;;;;;;10.51;100.00;99936.38;5034431;28;20200;-83
2022/11/08 07:21:00;;;;;;;0.00;0.00;;;;;;;10.51;100.00;99929.00;5034639;28;20537;-72
2022/11/08 07:23:26;;;;;;;0.00;0.00;;;;;;;10.58;100.00;99925.78;5034122;28;20462;-84
2022/11/08 07:25:51;;;;;;;0.00;0.00;;;;;;;10.62;100.00;99929.47;5034287;28;20634;-83
2022/11/08 07:28:18;;;;;;;0.00;0.00;;;;;;;10.63;100.00;99936.53;5034088;28;20227;-83
2022/11/08 07:30:44;;;;;;;2.30;0.80;;;;;;;10.65;100.00;99935.06;5016296;28;20238;-84
2022/11/08 07:33:10;;;;;;;0.07;0.07;;;;;;;10.70;100.00;99937.66;5034036;28;20639;-85
2022/11/08 07:35:35;;;;;;;0.00;0.00;;;;;;;10.75;100.00;99944.06;5034134;28;20211;-84
2022/11/08 07:38:00;;;;;;;0.37;0.33;;;;;;;10.81;100.00;99945.50;5034091;28;20211;-84
2022/11/08 07:40:26;;;;;;;4.17;0.87;;;;;;;10.85;100.00;99946.44;5033962;28;20263;-81
2022/11/08 07:42:51;;;;;;;0.00;0.00;;;;;;;10.88;100.00;99951.28;5033820;28;20187;-84
2022/11/08 07:45:16;;;;;;;0.00;0.00;;;;;;;10.91;100.00;99954.16;5033517;28;20191;-83
2022/11/08 07:47:42;;;;;;;0.40;0.27;;;;;;;10.91;100.00;99947.88;5033799;28;20223;-80
2022/11/08 07:50:08;;;;;;;0.00;0.00;;;;;;;10.90;100.00;99938.88;5033774;28;20177;-86
2022/11/08 07:52:33;;;;;;;0.00;0.00;;;;;;;10.95;100.00;99937.91;5033639;28;20226;-86
2022/11/08 07:54:58;;;;;;;0.00;0.00;;;;;;;10.94;100.00;99933.56;5033599;28;20176;-87
2022/11/08 07:57:24;;;;;;;0.03;0.03;;;;;;;10.96;100.00;99923.91;5033897;28;20636;-85
2022/11/08 07:59:49;;;;;;;0.00;0.00;;;;;;;10.95;100.00;99916.03;5033662;28;20217;-85
2022/11/08 08:02:14;;;;;;;0.00;0.00;;;;;;;10.97;100.00;99919.25;5033551;28;20179;-87
2022/11/08 08:04:40;;;;;;;0.00;0.00;;;;;;;10.96;100.00;99920.38;5033441;28;20175;-85
2022/11/08 08:07:06;;;;;;;0.00;0.00;;;;;;;10.93;100.00;99908.16;5033317;28;20184;-86
2022/11/08 08:09:33;;;;;;;0.00;0.00;;;;;;;10.91;100.00;99909.63;5033324;28;20180;-85
2022/11/08 08:11:59;;;;;;;0.00;0.00;;;;;;;10.93;100.00;99901.91;5033509;28;20176;-82
2022/11/08 08:14:24;;;;;;;0.00;0.00;;;;;;;10.90;100.00;99897.91;5033179;28;20172;-83
2022/11/08 08:16:49;;;;;;;0.00;0.00;;;;;;;10.87;100.00;99887.63;5030477;28;20238;-83
2022/11/08 08:19:15;;;;;;;0.00;0.00;;;;;;;10.90;100.00;99883.44;5032994;28;20657;-81
2022/11/08 08:21:40;;;;;;;0.13;0.13;;;;;;;10.98;100.00;99890.78;5033451;28;20504;-81
2022/11/08 08:24:06;;;;;;;0.00;0.00;;;;;;;11.04;100.00;99886.75;5032724;28;20184;-81
2022/11/08 08:26:31;;;;;;;0.30;0.30;;;;;;;11.16;100.00;99889.59;5033304;28;20207;-84
2022/11/08 08:28:56;;;;;;;1.90;1.00;;;;;;;11.22;100.00;99887.47;5033086;28;20215;-84
2022/11/08 08:31:22;;;;;;;0.00;0.00;;;;;;;11.28;100.00;99880.66;5033050;28;20598;-84
2022/11/08 08:33:47;;;;;;;0.00;0.00;;;;;;;11.33;100.00;99873.09;5032974;28;20649;-83
2022/11/08 08:36:13;;;;;;;0.00;0.00;;;;;;;11.36;99.06;99865.38;5032963;28;20176;-80
2022/11/08 08:38:38;;;;;;;0.30;0.30;;;;;;;11.40;98.30;99858.88;5033170;28;20172;-82
2022/11/08 08:41:04;;;;;;;0.00;0.00;;;;;;;11.32;98.36;99852.34;5032827;28;20199;-83
2022/11/08 08:43:32;;;;;;;0.00;0.00;;;;;;;11.33;98.60;99847.69;5033032;28;20172;-75
2022/11/08 08:46:02;;;;;;;0.00;0.00;;;;;;;11.38;98.39;99847.47;5032354;28;20206;-78
2022/11/08 08:48:28;;;;;;;0.00;0.00;;;;;;;11.41;97.60;99840.53;5032375;28;20290;-78
2022/11/08 08:50:54;;;;;;;0.10;0.10;;;;;;;11.40;97.87;99838.94;5032373;28;20183;-75
2022/11/08 08:53:19;;;;;;;1.13;1.03;;;;;;;11.48;97.66;99841.63;5032514;28;20528;-75
2022/11/08 08:55:44;;;;;;;0.00;0.00;;;;;;;11.54;97.90;99844.97;5032322;28;20188;-76
2022/11/08 08:58:10;;;;;;;0.33;0.33;;;;;;;11.68;97.87;99850.97;5032152;28;20203;-73
2022/11/08 09:00:36;;;;;;;0.00;0.00;;;;;;;11.76;96.53;99857.53;5032747;28;20445;-77
2022/11/08 09:03:07;;;;;;;0.03;0.03;;;;;;;11.82;95.37;99854.28;5033602;28;20175;-74
2022/11/08 09:05:33;;;;;;;0.00;0.00;;;;;;;11.87;94.93;99859.56;5033378;28;20237;-73
2022/11/08 09:07:59;;;;;;;0.63;0.63;;;;;;;11.95;94.52;99846.13;5032336;28;20247;-78
2022/11/08 09:10:25;;;;;;;0.00;0.00;;;;;;;12.01;93.82;99853.03;5032475;28;20197;-72
2022/11/08 09:12:51;;;;;;;0.00;0.00;;;;;;;12.09;93.33;99849.41;5032024;28;20709;-73
2022/11/08 09:15:16;;;;;;;8.30;0.20;;;;;;;12.25;92.53;99846.84;5031418;28;20318;-76
2022/11/08 09:17:42;;;;;;;0.00;0.00;;;;;;;12.34;92.00;99839.34;5032013;28;20259;-72
2022/11/08 09:20:08;;;;;;;0.10;0.10;;;;;;;12.44;90.60;99836.97;5031993;28;20532;-72
2022/11/08 09:22:33;;;;;;;0.27;0.20;;;;;;;12.53;89.96;99836.88;5032015;28;20218;-73
2022/11/08 09:25:00;;;;;;;0.00;0.00;;;;;;;12.60;87.10;99839.06;5031948;28;20234;-72
2022/11/08 09:27:28;;;;;;;2.27;0.53;;;;;;;12.71;85.94;99849.22;5031773;28;20261;-73
2022/11/08 09:29:53;;;;;;;0.27;0.13;;;;;;;12.79;84.98;99847.53;5013891;28;20186;-72
2022/11/08 09:32:19;;;;;;;4.13;0.57;;;;;;;12.87;83.64;99852.09;5031588;28;20176;-72
2022/11/08 09:34:44;;;;;;;0.00;0.00;;;;;;;12.95;82.31;99847.66;5031795;28;20638;-73
2022/11/08 09:37:09;;;;;;;0.60;0.60;;;;;;;13.07;80.95;99848.47;5031611;28;20175;-72
2022/11/08 09:39:34;;;;;;;2.40;0.20;;;;;;;13.20;81.18;99843.03;5030985;28;20203;-73
2022/11/08 09:42:29;;;;;;;0.00;0.00;;;;;;;13.31;80.05;99846.91;5027889;28;20179;-72
2022/11/08 09:44:57;;;;;;;0.00;0.00;;;;;;;13.29;79.65;99839.00;5025861;28;20189;-73
2022/11/08 09:47:26;;;;;;;0.00;0.00;;;;;;;13.34;79.21;99838.78;5031373;28;20183;-72
2022/11/08 09:50:11;;;;;;;0.00;0.00;;;;;;;13.45;78.34;99838.31;5046713;28;20555;-73
2022/11/08 09:52:39;;;;;;;0.00;0.00;;;;;;;13.49;78.32;99839.22;5030936;28;20183;-72
2022/11/08 09:55:28;;;;;;;0.00;0.00;;;;;;;13.46;77.09;99829.75;5030985;28;20214;-73
2022/11/08 09:58:08;;;;;;;0.00;0.00;;;;;;;13.49;76.82;99834.53;5021284;28;20242;-72
2022/11/08 10:00:37;;;;;;;0.00;0.00;;;;;;;13.63;76.10;99834.97;5030794;28;20180;-73
2022/11/08 10:03:03;;;;;;;0.20;0.20;;;;;;;13.73;76.02;99841.09;5030514;28;20183;-73
2022/11/08 10:05:37;;;;;;;0.53;0.53;;;;;;;13.84;74.82;99839.47;5030789;28;20547;-73
2022/11/08 10:08:08;;;;;;;0.00;0.00;;;;;;;14.04;74.05;99838.50;5031025;28;20255;-72
2022/11/08 10:10:54;;;;;;;0.00;0.00;;;;;;;14.15;73.62;99825.06;5030881;28;20225;-73
2022/11/08 10:13:30;;;;;;;0.20;0.20;;;;;;;14.26;71.64;99829.69;5030420;28;20194;-74
2022/11/08 10:16:16;;;;;;;0.20;0.20;;;;;;;14.30;71.05;99819.59;5031007;28;20188;-73
2022/11/08 10:18:49;;;;;;;0.10;0.10;;;;;;;14.41;70.67;99821.84;5030803;28;20170;-73
2022/11/08 10:21:45;;;;;;;0.10;0.10;;;;;;;14.49;69.58;99804.44;5030490;28;20187;-72
2022/11/08 10:24:22;;;;;;;0.00;0.00;;;;;;;14.48;69.57;99814.63;5030293;28;20202;-73
2022/11/08 10:26:51;;;;;;;0.00;0.00;;;;;;;14.53;69.01;99803.34;5030524;28;20210;-72
2022/11/08 10:29:19;;;;;;;0.87;0.10;;;;;;;14.63;69.08;99810.28;5030323;28;20211;-73
2022/11/08 10:31:46;;;;;;;0.63;0.20;;;;;;;14.62;68.93;99813.41;5030517;28;20168;-73
2022/11/08 10:34:19;;;;;;;3.20;0.47;;;;;;;14.59;68.09;99799.19;5030248;28;20179;-73
2022/11/08 10:36:47;;;;;;;0.83;0.70;;;;;;;14.62;68.05;99807.91;5030625;28;20179;-73
2022/11/08 10:39:21;;;;;;;0.00;0.00;;;;;;;14.62;68.31;99786.72;5030319;28;20176;-72
2022/11/08 10:42:09;;;;;;;0.00;0.00;;;;;;;14.74;68.10;99794.84;5030333;28;20186;-74
2022/11/08 10:44:35;;;;;;;0.40;0.33;;;;;;;14.79;67.62;99793.78;5029562;28;20191;-72
2022/11/08 10:47:06;;;;;;;0.30;0.30;;;;;;;14.89;67.23;99788.53;5030295;28;20179;-73
2022/11/08 10:49:42;;;;;;;0.30;0.20;;;;;;;14.86;66.67;99777.44;5030247;28;20227;-72
2022/11/08 10:52:10;;;;;;;0.67;0.10;;;;;;;14.95;67.23;99778.06;5030364;28;20254;-73
2022/11/08 10:54:49;;;;;;;0.10;0.10;;;;;;;15.09;67.07;99778.41;5030017;28;20171;-73
2022/11/08 10:57:16;;;;;;;0.00;0.00;;;;;;;15.22;66.91;99768.09;5030037;28;20258;-74
2022/11/08 10:59:42;;;;;;;0.37;0.30;;;;;;;15.36;66.40;99773.13;5030206;28;20172;-73
2022/11/08 11:02:21;;;;;;;1.10;0.50;;;;;;;15.27;65.91;99759.53;5030239;28;20218;-76
2022/11/08 11:04:47;;;;;;;2.97;0.50;;;;;;;15.25;65.61;99753.59;5012134;28;20190;-73
2022/11/08 11:07:32;;;;;;;0.33;0.10;;;;;;;15.27;65.64;99750.50;5029879;28;20172;-73
2022/11/08 11:10:20;;;;;;;5.10;0.73;;;;;;;15.38;65.88;99738.56;5030124;28;20342;-74
2022/11/08 11:13:00;;;;;;;0.83;0.30;;;;;;;15.42;65.47;99736.66;5029914;28;20195;-73
2022/11/08 11:15:36;;;;;;;0.00;0.00;;;;;;;15.34;65.40;99729.44;5030079;28;20565;-73
2022/11/08 11:18:02;;;;;;;0.00;0.00;;;;;;;15.41;65.84;99724.06;5012360;28;20544;-74
2022/11/08 11:20:28;;;;;;;0.00;0.00;;;;;;;15.45;65.72;99729.63;5029867;28;20217;-74
2022/11/08 11:22:53;;;;;;;0.00;0.00;;;;;;;15.54;65.00;99734.94;5029741;28;20537;-74
2022/11/08 11:25:22;;;;;;;0.47;0.47;;;;;;;15.48;65.23;99729.72;5030004;28;20168;-73
2022/11/08 11:27:53;;;;;;;0.00;0.00;;;;;;;15.47;64.91;99730.06;5029903;28;20225;-73
2022/11/08 11:30:27;;;;;;;0.43;0.43;;;;;;;15.62;64.53;99731.19;5029706;28;20176;-73
2022/11/08 11:32:58;;;;;;;1.80;0.20;;;;;;;15.59;63.84;99745.66;5029940;28;20172;-73
2022/11/08 11:35:30;;;;;;;0.37;0.37;;;;;;;15.54;63.69;99734.94;5029886;28;20314;-74
2022/11/08 11:37:59;;;;;;;0.50;0.40;;;;;;;15.50;63.43;99736.84;5032218;28;20255;-73
2022/11/08 11:40:39;;;;;;;0.30;0.30;;;;;;;15.54;63.78;99745.97;5033452;28;20245;-73
2022/11/08 11:43:28;;;;;;;0.00;0.00;;;;;;;15.56;63.75;99738.13;5033151;28;20626;-73
2022/11/08 11:46:08;;;;;;;0.27;0.17;;;;;;;15.63;63.89;99741.88;5032998;28;20601;-73
2022/11/08 11:48:41;;;;;;;0.00;0.00;;;;;;;15.74;63.17;99748.38;5033414;28;20273;-73
2022/11/08 11:51:09;;;;;;;0.10;0.10;;;;;;;15.87;63.98;99740.75;5031558;28;20191;-73
2022/11/08 11:53:36;;;;;;;1.07;0.40;;;;;;;15.88;62.43;99736.03;5030703;28;20234;-76